createdAt,value
2019-04-29T00:02:34.530Z,102406.80
2019-04-29T00:05:04.579Z,102399.70
2019-04-29T00:07:33.683Z,102403.29
2019-04-29T00:10:03.747Z,102404.69
2019-04-29T00:12:32.856Z,102404.69
2019-04-29T00:15:09.601Z,102401.12
2019-04-29T00:17:43.082Z,102400.75
2019-04-29T00:20:13.826Z,102418.62
2019-04-29T00:22:42.960Z,102415.55
2019-04-29T00:25:12.063Z,102407.70
2019-04-29T00:27:41.241Z,102415.43
2019-04-29T00:30:12.173Z,102411.91
2019-04-29T00:32:41.285Z,102411.91
2019-04-29T00:35:10.394Z,102412.83
2019-04-29T00:37:49.998Z,102413.72
2019-04-29T00:40:35.876Z,102409.70
2019-04-29T00:43:06.711Z,102414.16
2019-04-29T00:45:36.074Z,102411.11
2019-04-29T00:48:05.251Z,102425.34
2019-04-29T00:50:34.380Z,102429.77
2019-04-29T00:53:03.555Z,102431.53
2019-04-29T00:55:34.032Z,102434.16
2019-04-29T00:58:03.151Z,102435.02
2019-04-29T01:00:33.910Z,102439.45
2019-04-29T01:03:03.012Z,102437.66
2019-04-29T01:05:32.206Z,102441.25
2019-04-29T01:08:01.315Z,102441.22
2019-04-29T01:10:30.424Z,102438.98
2019-04-29T01:12:59.548Z,102442.98
2019-04-29T01:15:28.655Z,102443.91
2019-04-29T01:17:57.764Z,102438.55
2019-04-29T01:20:26.895Z,102437.21
2019-04-29T01:22:56.009Z,102439.00
2019-04-29T01:25:25.123Z,102437.69
2019-04-29T01:28:07.811Z,102439.94
2019-04-29T01:30:55.067Z,102443.95
2019-04-29T01:33:24.193Z,102440.84
2019-04-29T01:35:54.937Z,102432.48
2019-04-29T01:38:24.053Z,102442.39
2019-04-29T01:40:54.827Z,102452.22
2019-04-29T01:43:25.578Z,102445.97
2019-04-29T01:45:54.687Z,102451.27
2019-04-29T01:48:23.812Z,102449.52
2019-04-29T01:50:52.924Z,102453.16
2019-04-29T01:53:22.028Z,102459.55
2019-04-29T01:55:51.156Z,102465.95
2019-04-29T01:58:20.264Z,102460.73
2019-04-29T02:00:49.373Z,102462.59
2019-04-29T02:03:18.498Z,102461.30
2019-04-29T02:05:47.608Z,102461.33
2019-04-29T02:08:16.716Z,102464.91
2019-04-29T02:10:45.836Z,102468.05
2019-04-29T02:13:14.944Z,102464.97
2019-04-29T02:15:44.061Z,102472.11
2019-04-29T02:18:13.193Z,102469.52
2019-04-29T02:20:42.295Z,102466.45
2019-04-29T02:23:15.993Z,102471.84
2019-04-29T02:25:49.207Z,102470.96
2019-04-29T02:28:18.323Z,102474.50
2019-04-29T02:30:49.373Z,102465.62
2019-04-29T02:33:18.462Z,102467.01
2019-04-29T02:35:47.569Z,102466.16
2019-04-29T02:38:24.252Z,102461.75
2019-04-29T02:41:00.627Z,102464.89
2019-04-29T02:43:33.838Z,102468.03
2019-04-29T02:46:02.937Z,102472.05
2019-04-29T02:48:34.609Z,102473.84
2019-04-29T02:51:02.907Z,102468.95
2019-04-29T02:53:32.008Z,102472.17
2019-04-29T02:56:01.297Z,102473.13
2019-04-29T02:58:32.228Z,102467.80
2019-04-29T03:01:19.516Z,102475.78
2019-04-29T03:04:05.372Z,102469.54
2019-04-29T03:06:34.552Z,102477.11
2019-04-29T03:09:04.370Z,102473.14
2019-04-29T03:11:33.569Z,102472.24
2019-04-29T03:14:02.753Z,102471.38
2019-04-29T03:16:31.851Z,102472.23
2019-04-29T03:19:05.385Z,102469.13
2019-04-29T03:21:36.133Z,102478.94
2019-04-29T03:24:05.323Z,102474.50
2019-04-29T03:26:34.688Z,102486.95
2019-04-29T03:29:05.996Z,102477.64
2019-04-29T03:31:39.165Z,102479.44
2019-04-29T03:34:05.965Z,102489.27
2019-04-29T03:36:35.118Z,102484.85
2019-04-29T03:39:05.150Z,102488.43
2019-04-29T03:41:34.272Z,102486.66
2019-04-29T03:44:03.388Z,102490.23
2019-04-29T03:46:32.505Z,102485.86
2019-04-29T03:49:01.640Z,102485.91
2019-04-29T03:51:30.764Z,102487.27
2019-04-29T03:53:59.878Z,102492.61
2019-04-29T03:56:29.271Z,102491.76
2019-04-29T03:58:58.381Z,102497.14
2019-04-29T04:01:29.135Z,102495.81
2019-04-29T04:04:12.032Z,102504.24
2019-04-29T04:06:48.542Z,102496.22
2019-04-29T04:09:22.014Z,102486.88
2019-04-29T04:11:51.122Z,102497.55
2019-04-29T04:14:20.248Z,102495.76
2019-04-29T04:17:06.167Z,102494.47
2019-04-29T04:19:35.349Z,102497.59
2019-04-29T04:22:05.814Z,102504.24
2019-04-29T04:24:34.950Z,102509.14
2019-04-29T04:27:04.062Z,102503.38
2019-04-29T04:29:33.168Z,102508.28
2019-04-29T04:32:02.299Z,102511.81
2019-04-29T04:34:31.415Z,102519.82
2019-04-29T04:37:00.656Z,102522.95
2019-04-29T04:39:31.410Z,102522.48
2019-04-29T04:42:00.803Z,102523.86
2019-04-29T04:44:48.294Z,102523.42
2019-04-29T04:47:19.026Z,102527.41
2019-04-29T04:49:48.367Z,102534.05
2019-04-29T04:52:17.572Z,102536.73
2019-04-29T04:54:48.345Z,102531.83
2019-04-29T04:57:17.439Z,102531.81
2019-04-29T04:59:46.567Z,102529.13
2019-04-29T05:02:15.679Z,102534.00
2019-04-29T05:04:44.796Z,102531.34
2019-04-29T05:07:13.918Z,102533.10
2019-04-29T05:09:43.065Z,102534.87
2019-04-29T05:12:14.096Z,102529.08
2019-04-29T05:14:43.062Z,102531.31
2019-04-29T05:17:12.170Z,102541.99
2019-04-29T05:19:41.281Z,102544.63
2019-04-29T05:22:10.410Z,102541.06
2019-04-29T05:24:39.518Z,102546.82
2019-04-29T05:27:08.626Z,102552.61
2019-04-29T05:29:37.751Z,102548.13
2019-04-29T05:32:06.864Z,102545.39
2019-04-29T05:34:41.825Z,102558.25
2019-04-29T05:37:19.096Z,102553.31
2019-04-29T05:39:48.238Z,102556.38
2019-04-29T05:42:17.403Z,102552.80
2019-04-29T05:44:54.011Z,102545.63
2019-04-29T05:47:27.939Z,102553.13
2019-04-29T05:50:07.415Z,102550.41
2019-04-29T05:52:54.874Z,102557.50
2019-04-29T05:55:23.996Z,102563.23
2019-04-29T05:57:55.841Z,102563.62
2019-04-29T06:00:25.573Z,102570.23
2019-04-29T06:02:54.703Z,102575.92
2019-04-29T06:05:23.821Z,102569.60
2019-04-29T06:07:56.183Z,102580.19
2019-04-29T06:10:24.733Z,102579.21
2019-04-29T06:12:53.955Z,102579.12
2019-04-29T06:15:23.085Z,102581.67
2019-04-29T06:17:52.203Z,102594.08
2019-04-29T06:20:22.869Z,102586.80
2019-04-29T06:22:52.095Z,102596.08
2019-04-29T06:25:21.229Z,102587.52
2019-04-29T06:27:50.786Z,102584.27
2019-04-29T06:30:19.964Z,102583.70
2019-04-29T06:32:49.091Z,102585.36
2019-04-29T06:35:18.199Z,102585.22
2019-04-29T06:37:47.308Z,102582.38
2019-04-29T06:40:16.447Z,102586.20
2019-04-29T06:42:49.407Z,102592.66
2019-04-29T06:45:16.784Z,102594.25
2019-04-29T06:47:45.914Z,102598.48
2019-04-29T06:50:15.308Z,102605.36
2019-04-29T06:52:44.415Z,102601.51
2019-04-29T06:55:13.609Z,102591.88
2019-04-29T06:57:42.731Z,102600.98
2019-04-29T07:00:45.115Z,102599.84
2019-04-29T07:03:11.423Z,102595.06
2019-04-29T07:05:56.012Z,102600.13
2019-04-29T07:08:25.456Z,102606.09
2019-04-29T07:11:02.980Z,102606.20
2019-04-29T07:13:25.709Z,102606.36
2019-04-29T07:15:55.478Z,102611.39
2019-04-29T07:18:24.596Z,102608.85
2019-04-29T07:20:53.709Z,102609.00
2019-04-29T07:26:24.094Z,102613.93
2019-04-29T07:28:55.633Z,102612.02
2019-04-29T07:31:28.286Z,102614.31
2019-04-29T07:33:57.890Z,102615.22
2019-04-29T07:36:26.522Z,102614.38
2019-04-29T07:39:15.311Z,102618.40
2019-04-29T07:41:49.487Z,102613.47
2019-04-29T07:44:23.665Z,102615.64
2019-04-29T07:46:59.176Z,102611.04
2019-04-29T07:49:29.245Z,102617.25
2019-04-29T07:51:58.943Z,102616.30
2019-04-29T07:57:28.963Z,102627.00
2019-04-29T07:59:58.240Z,102628.44
2019-04-29T08:02:27.947Z,102625.85
2019-04-29T08:05:02.968Z,102628.17
2019-04-29T08:07:42.458Z,102623.82
2019-04-29T08:10:23.236Z,102627.57
2019-04-29T08:12:49.478Z,102626.47
2019-04-29T08:15:31.758Z,102632.67
2019-04-29T08:18:14.417Z,102628.05
2019-04-29T08:20:41.515Z,102632.43
2019-04-29T08:23:24.066Z,102631.06
2019-04-29T08:26:02.704Z,102631.50
2019-04-29T08:28:37.078Z,102628.81
2019-04-29T08:31:05.019Z,102628.48
2019-04-29T08:33:34.153Z,102631.42
2019-04-29T08:36:13.652Z,102629.81
2019-04-29T08:38:42.776Z,102629.94
2019-04-29T08:41:14.788Z,102631.98
2019-04-29T08:43:46.462Z,102638.84
2019-04-29T08:46:28.421Z,102634.48
2019-04-29T08:49:06.138Z,102628.86
2019-04-29T08:51:35.678Z,102637.58
2019-04-29T08:54:05.160Z,102632.91
2019-04-29T08:56:42.480Z,102635.81
2019-04-29T08:59:13.461Z,102635.52
2019-04-29T09:01:49.122Z,102639.64
2019-04-29T09:04:18.279Z,102635.04
2019-04-29T09:06:47.398Z,102642.22
2019-04-29T09:09:28.491Z,102646.17
2019-04-29T09:11:48.319Z,102635.90
2019-04-29T09:14:26.789Z,102639.27
2019-04-29T09:17:09.011Z,102631.30
2019-04-29T09:19:33.507Z,102630.09
2019-04-29T09:22:04.257Z,102631.58
2019-04-29T09:24:33.416Z,102625.92
2019-04-29T09:27:11.157Z,102632.36
2019-04-29T09:29:46.478Z,102629.44
2019-04-29T09:32:18.579Z,102629.52
2019-04-29T09:35:00.546Z,102626.84
2019-04-29T09:37:32.456Z,102624.83
2019-04-29T09:40:02.320Z,102623.74
2019-04-29T09:42:33.089Z,102626.77
2019-04-29T09:45:09.639Z,102624.61
2019-04-29T09:47:52.663Z,102620.20
2019-04-29T09:50:34.154Z,102620.50
2019-04-29T09:53:02.215Z,102622.12
2019-04-29T09:55:48.887Z,102613.16
2019-04-29T09:58:22.086Z,102618.67
2019-04-29T10:00:58.956Z,102615.27
2019-04-29T10:03:42.179Z,102614.02
2019-04-29T10:06:18.080Z,102615.32
2019-04-29T10:08:55.111Z,102608.27
2019-04-29T10:14:17.570Z,102605.59
2019-04-29T10:16:57.198Z,102604.69
2019-04-29T10:19:36.817Z,102604.75
2019-04-29T10:22:08.299Z,102597.38
2019-04-29T10:24:39.633Z,102597.69
2019-04-29T10:27:08.962Z,102593.70
2019-04-29T10:29:42.420Z,102597.95
2019-04-29T10:32:25.203Z,102604.97
2019-04-29T10:34:58.845Z,102597.26
2019-04-29T10:37:31.392Z,102597.43
2019-04-29T10:40:25.482Z,102601.55
2019-04-29T10:43:17.378Z,102586.94
2019-04-29T10:46:06.992Z,102593.11
2019-04-29T10:48:44.509Z,102598.20
2019-04-29T10:51:27.065Z,102593.88
2019-04-29T10:53:55.840Z,102586.38
2019-04-29T10:56:39.438Z,102585.20
2019-04-29T10:59:12.137Z,102592.66
2019-04-29T11:02:17.671Z,102585.63
2019-04-29T11:04:51.742Z,102584.05
2019-04-29T11:07:39.964Z,102581.73
2019-04-29T11:10:25.340Z,102581.55
2019-04-29T11:12:55.553Z,102580.42
2019-04-29T11:15:49.273Z,102580.59
2019-04-29T11:18:22.615Z,102572.27
2019-04-29T11:21:09.040Z,102572.30
2019-04-29T11:23:43.799Z,102571.98
2019-04-29T11:26:16.090Z,102567.17
2019-04-29T11:28:46.994Z,102566.52
2019-04-29T11:31:19.349Z,102566.78
2019-04-29T11:34:11.558Z,102568.70
2019-04-29T11:36:47.662Z,102570.50
2019-04-29T11:39:19.747Z,102569.72
2019-04-29T11:41:54.717Z,102564.41
2019-04-29T11:44:31.960Z,102559.31
2019-04-29T11:47:06.682Z,102561.69
2019-04-29T11:49:44.132Z,102560.29
2019-04-29T11:52:23.670Z,102557.00
2019-04-29T11:55:13.997Z,102559.50
2019-04-29T11:57:59.918Z,102559.23
2019-04-29T12:00:54.417Z,102555.86
2019-04-29T12:03:37.523Z,102555.23
2019-04-29T12:06:10.172Z,102555.06
2019-04-29T12:08:48.176Z,102549.90
2019-04-29T12:11:17.568Z,102553.58
2019-04-29T12:13:59.052Z,102545.77
2019-04-29T12:16:35.969Z,102546.92
2019-04-29T12:19:17.178Z,102543.25
2019-04-29T12:21:48.529Z,102542.09
2019-04-29T12:24:21.848Z,102545.72
2019-04-29T12:26:50.952Z,102539.18
2019-04-29T12:29:24.135Z,102534.20
2019-04-29T12:32:01.847Z,102533.97
2019-04-29T12:34:45.185Z,102538.15
2019-04-29T12:37:45.666Z,102525.12
2019-04-29T12:40:35.310Z,102524.09
2019-04-29T12:43:25.481Z,102528.61
2019-04-29T12:45:59.339Z,102528.80
2019-04-29T12:48:40.340Z,102525.67
2019-04-29T12:51:17.042Z,102531.83
2019-04-29T12:53:51.891Z,102528.09
2019-04-29T12:56:26.176Z,102525.95
2019-04-29T12:58:59.694Z,102527.61
2019-04-29T13:01:55.927Z,102526.76
2019-04-29T13:04:19.896Z,102520.91
2019-04-29T13:07:06.941Z,102515.92
2019-04-29T13:09:49.673Z,102518.69
2019-04-29T13:12:22.400Z,102512.20
2019-04-29T13:15:07.871Z,102517.21
2019-04-29T13:17:41.057Z,102511.26
2019-04-29T13:20:13.263Z,102511.34
2019-04-29T13:22:52.500Z,102513.18
2019-04-29T13:25:27.553Z,102501.66
2019-04-29T13:28:29.769Z,102497.69
2019-04-29T13:31:07.743Z,102494.34
2019-04-29T13:33:51.081Z,102495.48
2019-04-29T13:36:34.754Z,102490.49
2019-04-29T13:39:01.809Z,102486.88
2019-04-29T13:41:56.341Z,102480.70
2019-04-29T13:44:23.140Z,102494.11
2019-04-29T13:47:11.467Z,102491.69
2019-04-29T13:49:50.784Z,102488.28
2019-04-29T13:52:23.847Z,102487.77
2019-04-29T13:54:53.004Z,102483.83
2019-04-29T13:57:26.865Z,102484.80
2019-04-29T14:00:02.258Z,102484.62
2019-04-29T14:02:41.170Z,102481.73
2019-04-29T14:05:18.156Z,102487.91
2019-04-29T14:10:51.234Z,102495.71
2019-04-29T14:13:20.960Z,102494.47
2019-04-29T14:15:49.289Z,102488.38
2019-04-29T14:18:20.042Z,102492.95
2019-04-29T14:20:51.881Z,102491.10
2019-04-29T14:23:20.014Z,102484.25
2019-04-29T14:25:49.173Z,102496.23
2019-04-29T14:28:19.854Z,102492.09
2019-04-29T14:30:51.155Z,102491.59
2019-04-29T14:33:24.307Z,102488.48
2019-04-29T14:36:02.815Z,102481.59
2019-04-29T14:38:40.022Z,102483.75
2019-04-29T14:41:06.685Z,102476.89
2019-04-29T14:43:46.543Z,102474.34
2019-04-29T14:46:28.368Z,102480.56
2019-04-29T14:49:06.201Z,102480.23
2019-04-29T14:51:50.734Z,102475.66
2019-04-29T14:54:21.229Z,102475.50
2019-04-29T14:57:09.221Z,102478.48
2019-04-29T14:59:39.193Z,102474.02
2019-04-29T15:02:16.797Z,102481.88
2019-04-29T15:04:53.510Z,102473.10
2019-04-29T15:07:28.875Z,102477.87
2019-04-29T15:09:58.720Z,102476.67
2019-04-29T15:12:51.187Z,102481.41
2019-04-29T15:15:29.737Z,102486.34
2019-04-29T15:18:16.462Z,102488.40
2019-04-29T15:20:43.651Z,102489.22
2019-04-29T15:23:12.778Z,102486.95
2019-04-29T15:25:41.920Z,102494.43
2019-04-29T15:28:11.101Z,102493.89
2019-04-29T15:30:41.960Z,102478.88
2019-04-29T15:33:21.944Z,102490.74
2019-04-29T15:35:54.981Z,102484.11
2019-04-29T15:38:22.289Z,102482.03
2019-04-29T15:40:51.414Z,102487.55
2019-04-29T15:43:24.508Z,102488.91
2019-04-29T15:45:54.726Z,102487.70
2019-04-29T15:48:34.330Z,102486.09
2019-04-29T15:51:15.418Z,102492.59
2019-04-29T15:53:48.316Z,102491.93
2019-04-29T15:56:28.385Z,102487.39
2019-04-29T15:58:59.576Z,102489.08
2019-04-29T16:01:31.024Z,102489.89
2019-04-29T16:04:08.452Z,102495.30
2019-04-29T16:06:56.275Z,102495.30
2019-04-29T16:09:50.586Z,102494.50
2019-04-29T16:12:11.492Z,102500.86
2019-04-29T16:14:35.890Z,102489.08
2019-04-29T16:17:05.103Z,102497.20
2019-04-29T16:19:34.407Z,102498.41
2019-04-29T16:22:03.695Z,102497.06
2019-04-29T16:24:38.510Z,102497.06
2019-04-29T16:29:46.092Z,102491.39
2019-04-29T16:32:15.935Z,102487.47
2019-04-29T16:34:54.343Z,102487.87
2019-04-29T16:37:31.735Z,102478.80
2019-04-29T16:40:06.573Z,102483.67
2019-04-29T16:42:42.188Z,102483.81
2019-04-29T16:45:14.161Z,102479.45
2019-04-29T16:47:47.641Z,102477.84
2019-04-29T16:50:20.019Z,102476.30
2019-04-29T16:52:50.630Z,102476.91
2019-04-29T16:55:20.821Z,102472.16
2019-04-29T16:57:50.570Z,102468.64
2019-04-29T17:00:24.451Z,102472.80
2019-04-29T17:02:56.595Z,102474.70
2019-04-29T17:05:25.957Z,102473.89
2019-04-29T17:07:57.001Z,102478.90
2019-04-29T17:10:35.138Z,102472.13
2019-04-29T17:13:09.004Z,102473.82
2019-04-29T17:15:44.468Z,102467.53
2019-04-29T17:18:13.985Z,102475.25
2019-04-29T17:20:43.094Z,102464.49
2019-04-29T17:23:23.661Z,102470.78
2019-04-29T17:25:46.546Z,102471.73
2019-04-29T17:28:29.353Z,102470.99
2019-04-29T17:31:14.284Z,102477.42
2019-04-29T17:33:59.005Z,102473.91
2019-04-29T17:35:18.629Z,102502.08
2019-04-29T17:36:29.364Z,102473.60
2019-04-29T17:39:00.026Z,102469.81
2019-04-29T17:41:29.546Z,102469.55
2019-04-29T17:44:06.666Z,102472.93
2019-04-29T17:46:40.058Z,102468.06
2019-04-29T17:49:30.565Z,102470.77
2019-04-29T17:52:02.899Z,102474.96
2019-04-29T17:54:48.730Z,102475.00
2019-04-29T17:57:36.523Z,102480.78
2019-04-29T18:00:15.826Z,102479.42
2019-04-29T18:03:05.406Z,102474.12
2019-04-29T18:05:57.834Z,102468.37
2019-04-29T18:08:31.907Z,102470.33
2019-04-29T18:11:06.489Z,102475.05
2019-04-29T18:13:35.280Z,102470.73
2019-04-29T18:16:17.335Z,102472.08
2019-04-29T18:19:00.301Z,102470.42
2019-04-29T18:21:50.643Z,102470.48
2019-04-29T18:24:22.704Z,102471.50
2019-04-29T18:26:53.951Z,102477.84
2019-04-29T18:29:25.784Z,102482.84
2019-04-29T18:32:00.537Z,102480.69
2019-04-29T18:34:37.447Z,102477.98
2019-04-29T18:37:08.428Z,102483.38
2019-04-29T18:39:38.467Z,102487.84
2019-04-29T18:42:13.706Z,102481.63
2019-04-29T18:44:56.423Z,102483.11
2019-04-29T18:47:22.610Z,102484.46
2019-04-29T18:49:50.655Z,102495.41
2019-04-29T18:52:26.549Z,102490.00
2019-04-29T18:54:59.497Z,102488.23
2019-04-29T18:57:32.751Z,102485.53
2019-04-29T19:00:12.730Z,102489.18
2019-04-29T19:02:52.473Z,102490.13
2019-04-29T19:05:32.490Z,102496.41
2019-04-29T19:08:11.452Z,102499.99
2019-04-29T19:10:41.563Z,102500.47
2019-04-29T19:13:05.391Z,102501.97
2019-04-29T19:15:39.889Z,102496.35
2019-04-29T19:18:17.522Z,102504.39
2019-04-29T19:20:52.925Z,102509.39
2019-04-29T19:23:29.463Z,102506.69
2019-04-29T19:26:03.386Z,102502.64
2019-04-29T19:28:34.676Z,102506.75
2019-04-29T19:31:09.857Z,102509.92
2019-04-29T19:33:42.864Z,102504.11
2019-04-29T19:36:18.511Z,102511.41
2019-04-29T19:38:48.869Z,102500.19
2019-04-29T19:41:18.255Z,102516.41
2019-04-29T19:43:55.052Z,102509.64
2019-04-29T19:46:25.327Z,102506.53
2019-04-29T19:49:09.835Z,102514.70
2019-04-29T19:51:43.532Z,102513.41
2019-04-29T19:54:11.940Z,102517.06
2019-04-29T19:56:44.753Z,102506.34
2019-04-29T19:59:18.089Z,102512.28
2019-04-29T20:02:02.129Z,102517.28
2019-04-29T20:04:28.218Z,102518.75
2019-04-29T20:07:06.026Z,102518.88
2019-04-29T20:09:32.447Z,102523.87
2019-04-29T20:12:09.230Z,102527.51
2019-04-29T20:14:33.982Z,102529.33
2019-04-29T20:17:12.682Z,102524.80
2019-04-29T20:20:00.302Z,102520.88
2019-04-29T20:22:29.670Z,102521.70
2019-04-29T20:25:00.581Z,102521.00
2019-04-29T20:27:30.999Z,102518.83
2019-04-29T20:30:15.688Z,102525.27
2019-04-29T20:32:42.833Z,102525.44
2019-04-29T20:35:15.866Z,102525.53
2019-04-29T20:37:52.097Z,102522.54
2019-04-29T20:40:26.861Z,102524.42
2019-04-29T20:43:10.718Z,102520.96
2019-04-29T20:45:45.460Z,102517.94
2019-04-29T20:48:19.407Z,102526.09
2019-04-29T20:50:52.521Z,102519.94
2019-04-29T20:53:22.609Z,102523.62
2019-04-29T20:55:56.217Z,102523.28
2019-04-29T20:58:31.387Z,102520.17
2019-04-29T21:01:03.159Z,102520.70
2019-04-29T21:03:36.078Z,102516.70
2019-04-29T21:06:21.006Z,102518.11
2019-04-29T21:08:52.235Z,102519.55
2019-04-29T21:11:35.535Z,102521.36
2019-04-29T21:14:27.224Z,102515.50
2019-04-29T21:16:57.670Z,102517.78
2019-04-29T21:19:30.913Z,102512.50
2019-04-29T21:22:21.929Z,102513.85
2019-04-29T21:24:53.888Z,102520.60
2019-04-29T21:27:26.011Z,102511.98
2019-04-29T21:29:59.308Z,102514.15
2019-04-29T21:32:30.599Z,102515.91
2019-04-29T21:35:19.038Z,102511.37
2019-04-29T21:38:01.192Z,102512.30
2019-04-29T21:40:42.325Z,102511.45
2019-04-29T21:43:17.535Z,102506.99
2019-04-29T21:45:49.946Z,102506.17
2019-04-29T21:48:25.333Z,102504.99
2019-04-29T21:50:58.785Z,102506.40
2019-04-29T21:53:36.574Z,102499.24
2019-04-29T21:56:09.114Z,102505.64
2019-04-29T21:58:40.182Z,102499.55
2019-04-29T22:01:12.289Z,102501.02
2019-04-29T22:03:50.540Z,102500.20
2019-04-29T22:06:19.870Z,102499.26
2019-04-29T22:08:54.282Z,102505.89
2019-04-29T22:11:26.957Z,102506.75
2019-04-29T22:14:03.198Z,102507.65
2019-04-29T22:16:32.217Z,102505.06
2019-04-29T22:19:10.267Z,102511.63
2019-04-29T22:21:42.614Z,102507.69
2019-04-29T22:24:15.914Z,102505.41
2019-04-29T22:26:49.037Z,102504.17
2019-04-29T22:29:21.570Z,102505.16
2019-04-29T22:31:56.427Z,102508.33
2019-04-29T22:34:28.359Z,102507.45
2019-04-29T22:37:01.131Z,102508.39
2019-04-29T22:39:43.065Z,102510.09
2019-04-29T22:42:32.078Z,102517.25
2019-04-29T22:45:06.429Z,102512.79
2019-04-29T22:47:37.532Z,102519.12
2019-04-29T22:50:14.313Z,102514.73
2019-04-29T22:52:48.860Z,102512.04
2019-04-29T22:55:39.304Z,102514.73
2019-04-29T22:58:14.981Z,102512.98
2019-04-29T23:00:48.825Z,102514.33
2019-04-29T23:03:18.764Z,102514.38
2019-04-29T23:05:47.099Z,102511.27
2019-04-29T23:08:16.191Z,102514.44
2019-04-29T23:10:45.643Z,102513.09
2019-04-29T23:13:14.788Z,102511.22
2019-04-29T23:15:45.532Z,102505.77
2019-04-29T23:18:24.305Z,102506.64
2019-04-29T23:20:50.242Z,102511.22
2019-04-29T23:23:20.993Z,102510.39
2019-04-29T23:25:52.313Z,102515.42
2019-04-29T23:28:22.409Z,102505.11
2019-04-29T23:30:53.397Z,102509.56
2019-04-29T23:33:24.060Z,102506.40
2019-04-29T23:35:53.741Z,102509.98
2019-04-29T23:38:22.854Z,102512.16
2019-04-29T23:40:54.652Z,102511.22
2019-04-29T23:43:25.310Z,102500.54
2019-04-29T23:45:59.037Z,102502.41
2019-04-29T23:48:26.571Z,102506.87
2019-04-29T23:50:58.148Z,102495.67
2019-04-29T23:53:26.700Z,102502.00
2019-04-29T23:56:00.144Z,102496.19
2019-04-29T23:58:28.310Z,102499.72
